Sierra Nevada Aquatic Research Lab (SNARL) Reserve, California Weather observations

Data are for 10 minute period ending at time listed.
 Day   Time   Solar   Ave.   Ave.  Ave.  Vector  Max.   Baro.   Total    
  of    of     Rad.   Air    Rel.  Wind   Wind   Wind  Press.  Precip.   
Year   Day            Temp.  Hum.  Speed  Dir.   Gust                    
2018   (PST)  Kw/m2    F      %     mph   deg.    mph    mb.     in.     
-------------------------------------------------------------------------
 140    1:00   0.00   33.9    88    1.4   300     3.1   782.2    0.00 
 140    1:10   0.00   32.2    88    0.5   139     2.4   782.2    0.00 
 140    1:20   0.00   31.0    90    1.9   223     3.6   782.2    0.00 
 140    1:30   0.00   30.7    91    1.2   210     2.2   782.1    0.00 
 140    1:40   0.00   30.9    93    3.2   248     6.1   782.1    0.00 
 140    1:50   0.00   31.3    92    2.0   285     3.3   782.0    0.00 
 140    2:00   0.00   31.5    92    2.1   246     4.0   782.0    0.00 
 140    2:10   0.00   31.0    93    1.9   280     7.4   782.0    0.00 
 140    2:20   0.00   31.1    93    1.7   254     2.9   782.0    0.00 
 140    2:30   0.00   30.9    92    1.5   314     4.1   781.9    0.00 
 140    2:40   0.00   30.6    93    2.3   291     3.8   781.9    0.00 
 140    2:50   0.00   30.5    93    1.9   295     5.5   781.9    0.00 
 140    3:00   0.00   30.7    92    2.4   252     5.6   781.9    0.00 
 140    3:10   0.00   30.2    92    0.4   210     1.2   782.0    0.00 
 140    3:20   0.00   29.5    93    1.2   207     3.1   782.0    0.00 
 140    3:30   0.00   30.2    93    2.1   286     3.8   782.0    0.00 
 140    3:40   0.00   30.3    95    1.0   281     2.9   781.9    0.00 
 140    3:50   0.00   29.8    94    0.8   232     1.9   782.0    0.00 
 140    4:00   0.00   30.9    96    3.2   299     5.8   782.0    0.00 
 140    4:10   0.00   30.1    92    1.5   295     4.0   782.0    0.00 
 140    4:20   0.00   29.9    93    2.6   297     5.5   782.1    0.00 
 140    4:30   0.00   28.8    93    0.7   205     2.3   782.1    0.00 
 140    4:40   0.00   29.1    95    1.2   273     2.6   782.1    0.00 
 140    4:50   0.00   29.3    95    1.6   251     2.9   782.3    0.00 
 140    5:00   0.01   29.9    96    2.3   238     4.5   782.3    0.00 
 140    5:10   0.02   32.4    92    1.5   263     2.7   782.3    0.00 
 140    5:20   0.03   31.5    91    0.2   301     1.7   782.4    0.00 
 140    5:30   0.05   31.2    92    0.6   206     1.8   782.5    0.00 
 140    5:40   0.07   32.6    92    0.8   110     2.1   782.6    0.00 
 140    5:50   0.08   33.3    91    2.0   339     4.8   782.6    0.00 
 140    6:00   0.12   35.1    90    1.3   259     4.2   782.6    0.00 
 140    6:10   0.12   37.5    87    0.7   321     1.9   782.6    0.00 
 140    6:20   0.08   38.9    84    1.0   206     1.9   782.6    0.00 
 140    6:30   0.09   39.8    86    0.8   226     1.7   782.6    0.00 
 140    6:40   0.20   41.0    83    1.3    71     4.5   782.6    0.00 
 140    6:50   0.34   43.9    75    2.1    37     3.9   782.5    0.00 
 140    7:00   0.38   46.8    70    3.0    37     7.4   782.5    0.00 
 140    7:10   0.42   48.7    67    3.4    45     6.8   782.5    0.00 
 140    7:20   0.45   50.0    62    2.8    62     5.7   782.4    0.00 
 140    7:30   0.49   52.2    56    2.5    53     5.4   782.4    0.00 
 140    7:40   0.52   53.2    52    2.6    55     6.0   782.3    0.00 
 140    7:50   0.56   54.7    49    2.8    57     6.8   782.3    0.00 
 140    8:00   0.59   54.9    47    2.5    15     5.9   782.2    0.00 
 140    8:10   0.62   56.0    46    2.0    34     4.7   782.1    0.00 
 140    8:20   0.65   57.1    44    2.9    74     6.1   782.0    0.00 
 140    8:30   0.68   56.7    44    3.3    40     6.2   781.9    0.00 
 140    8:40   0.67   56.8    42    3.3    74     6.4   781.8    0.00 
 140    8:50   0.74   58.3    36    2.6    75     6.8   781.7    0.00 
 140    9:00   0.77   59.9    35    4.1   111     8.1   781.6    0.00 
 140    9:10   0.79   60.0    31    3.7    65     8.0   781.6    0.00 
 140    9:20   0.81   60.6    30    3.8    76     8.1   781.5    0.00 
 140    9:30   0.84   60.5    28    4.3    60     8.7   781.4    0.00 
 140    9:40   0.86   61.7    29    4.5   101     9.3   781.4    0.00 
 140    9:50   0.88   61.5    26    4.5    55     8.1   781.4    0.00 
 140   10:00   0.90   62.2    24    5.5    77    12.8   781.3    0.00 
 140   10:10   0.91   61.8    24    7.3   105    13.9   781.4    0.00 
 140   10:20   0.94   62.3    25    7.3    96    14.7   781.3    0.00 
 140   10:30   0.90   62.4    25    5.7    95    12.0   781.2    0.00 
 140   10:40   0.94   63.6    22    6.8    81    13.2   781.2    0.00 
 140   10:50   0.93   63.2    23    5.3    93    14.0   781.2    0.00 
 140   11:00   1.00   63.8    22    6.8    74    12.6   781.1    0.00 
 140   11:10   0.95   64.4    21    3.8   103     9.9   781.0    0.00 
 140   11:20   0.96   65.1    21    5.7   116    11.9   780.9    0.00 
 140   11:30   0.84   64.7    21    5.0    44    11.2   780.9    0.00 
 140   11:40   1.00   65.2    21    5.2   108    11.5   780.8    0.00 
 140   11:50   0.88   65.4    21    4.7   116    10.1   780.7    0.00 
 140   12:00   0.89   65.6    22    6.7   119    12.7   780.7    0.00 
 140   12:10   0.41   64.6    22    6.4   117    12.3   780.6    0.00 
 140   12:20   0.43   63.9    22    4.9    52    10.4   780.5    0.00 
 140   12:30   0.25   63.3    23    5.9   118    11.5   780.4    0.00 
 140   12:40   0.30   62.2    25    6.4   226    10.8   780.3    0.00 
 140   12:50   0.27   62.6    25    5.1   181     9.1   780.2    0.00 
 140   13:00   0.24   62.2    28   10.1   199    20.9   780.2    0.00 
 140   13:10   0.32   61.0    30   11.1   230    19.7   780.1    0.00 
 140   13:20   0.80   63.4    28    5.2   249     9.6   780.1    0.00 
 140   13:30   0.51   65.2    27    8.1   248    15.2   780.0    0.00 
 140   13:40   0.28   63.0    29   10.9   227    19.9   780.0    0.00 
 140   13:50   0.29   61.6    30   10.3   251    18.6   780.0    0.00 
 140   14:00   0.32   61.8    31   10.5   244    15.8   780.0    0.00 
 140   14:10   0.63   62.7    31    9.9   220    16.0   779.8    0.00 
 140   14:20   0.63   64.4    29    9.1   235    17.2   779.7    0.00 
 140   14:30   0.33   62.9    31   13.4   232    20.8   779.7    0.00 
 140   14:40   0.35   61.8    32   11.9   228    18.3   779.7    0.00 
 140   14:50   0.42   61.7    32   12.0   238    21.0   779.7    0.00 
 140   15:00   0.36   61.4    32   15.2   236    21.9   779.6    0.00 
 140   15:10   0.38   61.5    31   11.8   242    18.0   779.5    0.00 
 140   15:20   0.31   61.3    31   10.6   234    18.0   779.4    0.00 
 140   15:30   0.27   61.2    31    9.3   239    19.4   779.3    0.00 
 140   15:40   0.24   60.7    31   12.7   230    22.1   779.1    0.00 
 140   15:50   0.28   60.5    31   13.2   227    21.1   779.0    0.00 
 140   16:00   0.28   61.0    32   11.4   230    19.7   779.0    0.00 
 140   16:10   0.23   60.6    33   10.4   231    16.9   779.0    0.00 
 140   16:20   0.20   60.2    33   10.4   239    16.4   778.9    0.00 
 140   16:30   0.18   60.1    33    7.3   236    21.6   778.9    0.00 
 140   16:40   0.18   59.8    35    8.5   269    21.7   778.8    0.00 
 140   16:50   0.17   59.3    35   10.4   262    22.2   778.7    0.00 
 140   17:00   0.14   59.4    34   10.9   239    19.8   778.6    0.00 
 140   17:10   0.17   59.0    35   11.4   243    23.5   778.5    0.00 
 140   17:20   0.26   59.5    35   13.8   236    22.1   778.4    0.00 
 140   17:30   0.26   60.0    35   14.2   234    21.9   778.3    0.00 
 140   17:40   0.23   59.8    36   12.0   228    21.4   778.4    0.00 
 140   17:50   0.22   59.4    36   11.2   236    18.5   778.5    0.00 
 140   18:00   0.18   59.2    36    5.3   250    15.0   778.5    0.00 
 140   18:10   0.13   58.8    37    8.2   240    19.7   778.8    0.00 
 140   18:20   0.08   57.1    40    8.7   136    18.1   778.8    0.00 
 140   18:30   0.05   56.5    41    8.1   159    14.3   778.8    0.00 
 140   18:40   0.05   56.1    42    9.1   152    14.6   778.8    0.00 
 140   18:50   0.03   55.5    43   11.3   152    16.7   778.9    0.00 
 140   19:00   0.01   54.7    45    9.9   154    13.6   778.9    0.00 
 140   19:10   0.00   53.5    47    9.7   146    13.9   779.0    0.00 
 140   19:20   0.00   52.4    48    9.0   150    11.9   779.1    0.00 
 140   19:30   0.00   51.8    48    8.7   159    13.4   779.0    0.00 
 140   19:40   0.00   51.5    48    8.1   173    11.1   778.9    0.00 
 140   19:50   0.00   51.0    48    6.2   190     8.7   778.9    0.00 
 140   20:00   0.00   51.4    47    7.0   232    12.0   779.1    0.00 
 140   20:10   0.00   50.6    50    2.9   279     6.9   779.2    0.00 
 140   20:20   0.00   49.5    53    6.1   297    12.7   779.3    0.00 
 140   20:30   0.00   49.4    54    5.1   308    10.0   779.5    0.00 
 140   20:40   0.00   49.1    54    5.5   277    11.1   779.7    0.00 
 140   20:50   0.00   49.0    49   10.3   268    17.2   779.8    0.00 
 140   21:00   0.00   49.4    46   10.4   267    17.4   779.8    0.00 
 140   21:10   0.00   49.6    45    9.2   270    14.9   779.9    0.00 
 140   21:20   0.00   49.7    46    8.4   269    14.5   780.0    0.00 
 140   21:30   0.00   50.5    48   10.6   265    18.0   780.1    0.00 
 140   21:40   0.00   50.3    52    9.7   278    16.5   780.3    0.00 
 140   21:50   0.00   49.6    54    7.1   280    12.6   780.4    0.00 
 140   22:00   0.00   49.2    57    7.0   282    11.6   780.3    0.00 
 140   22:10   0.00   49.0    58    6.5   278    10.6   780.4    0.00 
 140   22:20   0.00   48.7    60    5.6   270     9.2   780.4    0.00 
 140   22:30   0.00   48.4    60    3.2   285     6.2   780.5    0.00 
 140   22:40   0.00   48.5    61    4.1   301     8.2   780.5    0.00 
 140   22:50   0.00   48.6    63    5.0    60    14.9   780.6    0.00 
 140   23:00   0.00   45.3    80   10.4    98    16.5   780.8    0.00 
 140   23:10   0.00   43.0    90    9.8   116    15.6   780.8    0.06 
 140   23:20   0.00   42.4    90    9.7   104    13.6   780.8    0.02 
 140   23:30   0.00   41.9    90    8.8   106    12.6   780.8    0.02 
 140   23:40   0.00   41.6    92    7.9    91    10.7   780.8    0.02 
 140   23:50   0.00   41.5    93    7.3    97     9.3   780.9    0.02 
 141    0:00   0.00   41.5    92    6.2   105     8.3   780.9    0.01 
 141    0:10   0.00   41.5    92    3.5   126     6.6   780.9    0.02 
 141    0:20   0.00   41.5    93    2.8   280     6.1   780.8    0.03 
 141    0:30   0.00   41.3    93    5.5   233     7.9   780.8    0.03 
 141    0:40   0.00   41.5    93    4.8   212     7.0   780.8    0.02 
 141    0:50   0.00   41.5    92    2.5   240     5.3   780.8    0.02 

Return to SNARL Reserve graphs page.


Western Regional Climate Center,wrcc@dri.edu